LiveATC.Net - Listen to live air traffic control over the Internet!


ICAO: KSCH  IATA: SCH   Airport: Schenectady County Airport
City: Schenectady   State/Province: New York
Country: United States   Continent: North America
KSCH METAR Weather: KSCH 160146Z 30010G22KT 10SM CLR M02/M09 A3006 RMK LAST
KSCH Flight Activity (FlightAware)
KSCH Airport Info   (iFlightPlanner)
KSCH VFR Sectional Chart   (iFlightPlanner) 
KSCH IFR Low Chart   (iFlightPlanner) 

KSCH Gnd/Twr
Feed Status: UP   Listeners: 0
Listen in your browser - HTML5 player (in browser, HTML5)
Click here to listen with your own player (launches your MP3 player)
Archive Access: KSCH Gnd/Twr
FacilityFrequency
Schenectady Ground121.900
Schenectady Tower121.300
Feed sponsored by: Richmor Aviation

NOTICE

Unauthorized use prohibited. See LiveATC.net Terms of Service


Airport/ARTCC Code
Frequency Search
(e.g., 124.400, 128.75)
Site-wide search
 


Browse Feeds
Top 50 Feeds
Coverage Map
Bad Weather Areas

LiveATC FAQ
Offer LiveATC feed
Contact LiveATC.net
Press Inquiries

LiveATC on iPhone
LiveATC on Android

Windows Phone
Windows 8/10

LiveATC Mobile
(Mobile browser)

ATC Audio Archives
Interesting Recordings

LiveATC Forums


Home Page
About LiveATC.net
Make a Donation
Terms of Use
Privacy Policy

Canadian Air Freqs

AIRMETs/SIGMETs

FAA Airport Status
Nat'l Airspace Status
Arrival Demand Charts


Server Software By:
Icecast.org
Liquidsoap